YHUG

Details ICAO YHUG (HGD)
Name Hughenden
Region Australia
Timezone Australia/Brisbane (UTC+10.0)
Plans Departing 1
Arriving 4
Stats Elevation 1,043 ft / 318 m (AMSL)
Location -20.814791° 144.223380°
Runways 2
Magnetic Variation 6.982° E
Sunrise 2018-05-20 20:49:14 UTC / 2018-05-21 06:49:14 Local
Sunset 2018-05-21 07:52:57 UTC / 2018-05-21 17:52:57 Local
Advertisement - Login to hide

Runways

ID Width Length Bearing (true) Bearing (mag) Surface Threshold Offset Overrun Length
12 98 ft / 30 m 5,394 ft / 1,644 m 128.00° 121.02° Asphalt 0 ft / 0 m 0 ft / 0 m
24 164 ft / 50 m 3,498 ft / 1,066 m 245.55° 238.57° Dirt 0 ft / 0 m 0 ft / 0 m
30 98 ft / 30 m 5,394 ft / 1,644 m 308.00° 301.02° Asphalt 0 ft / 0 m 0 ft / 0 m
6 164 ft / 50 m 3,498 ft / 1,066 m 65.56° 58.58° Dirt 0 ft / 0 m 0 ft / 0 m

Map

Weather


0- 5 10 15 20 25 30 35+ Temperature / ° C

Clouds and Precipitation
Forecast for 2018-05-21 06:00 UTC. Updated 2 hours ago

Ground ~20,000 ft ~40,000 ft Winds

METAR

YHUG 210700Z AUTO 11011KT 9999 // NCD 25/M03 Q1019

TAF

Not found

Frequencies

Unicom 126.70 MHz CTAF
Warning: Do not use this data for real-world aviation or navigation. No guarantee of current accuracy is given.